Data for 02/18/2010

Time Sea-Level Adjusted Pressure Absolute Pressure Temperature Relative Humidity Dew Point   
(mb) (inHg) (mb) (inHg) (C) (F) (%) (C) (F)
00:05 1021 30.15 850 25.1 -2.6 27.3 84 -5 23
00:10 1021 30.15 850 25.1 -2.9 26.8 86 -4.9 23.2
00:15 1021 30.15 850 25.1 -2.9 26.8 87 -4.8 23.4
00:20 1021 30.15 850 25.1 -2.8 26.9 85 -5.1 22.9
00:25 1021 30.15 850 25.1 -3 26.6 86 -5 23.1
00:30 1021 30.15 850 25.1 -3 26.6 86 -5 23.1
00:35 1021 30.15 850 25.1 -2.9 26.7 86 -4.9 23.2
00:40 1021 30.15 850 25.1 -3.2 26.2 87 -5.1 22.8
00:45 1021 30.15 850 25.1 -3.3 26 87 -5.2 22.7
00:50 1021 30.15 850 25.1 -3.3 26.1 88 -5 22.9
00:55 1021 30.15 850 25.1 -3.2 26.2 87 -5.1 22.8
01:00 1021 30.15 850 25.1 -3.3 26.1 87 -5.1 22.8
01:05 1021 30.15 850 25.1 -3.5 25.7 89 -5.1 22.9
01:10 1021 30.15 850 25.1 -3.8 25.2 91 -5.1 22.8
01:15 1021 30.15 850 25.1 -3.9 25 91 -5.1 22.8
01:20 1021 30.15 850 25.1 -3.9 25.1 91 -5.1 22.8
01:25 1021 30.15 850 25.1 -4 24.8 92 -5.2 22.7
01:30 1021 30.15 850 25.1 -4 24.7 92 -5.2 22.7
01:35 1021 30.15 850 25.1 -4 24.7 92 -5.1 22.8
01:40 1021 30.15 850 25.1 -4.1 24.7 92 -5.2 22.7
01:45 1021 30.15 850 25.1 -4.2 24.4 93 -5.1 22.8
01:50 1021 30.15 850 25.1 -4.2 24.5 93 -5.2 22.7
01:55 1021 30.15 850 25.1 -4.2 24.4 93 -5.2 22.6
02:00 1021 30.15 850 25.1 -4.3 24.2 93 -5.3 22.4
02:05 1021 30.15 850 25.1 -4.4 24.1 93 -5.4 22.2
02:10 1021 30.15 850 25.1 -4.5 24 92 -5.5 22.1
02:15 1021 30.15 850 25.1 -4.6 23.8 93 -5.6 22
02:20 1021 30.15 850 25.1 -4.5 23.9 92 -5.6 21.9
02:25 1021 30.15 850 25.1 -4.5 23.9 91 -5.7 21.8
02:30 1021 30.15 850 25.1 -4.5 23.9 91 -5.7 21.7
02:35 1021 30.15 850 25.1 -4.5 23.8 91 -5.8 21.6
02:40 1021 30.15 850 25.1 -4.6 23.8 91 -5.8 21.6
02:45 1021 30.15 850 25.1 -4.6 23.7 92 -5.7 21.7
02:50 1021 30.15 850 25.1 -4.6 23.8 92 -5.7 21.7
02:55 1021 30.15 850 25.1 -4.5 23.9 92 -5.7 21.8
03:00 1021 30.15 850 25.1 -4.6 23.7 92 -5.7 21.8
03:05 1021 30.15 850 25.1 -4.6 23.8 92 -5.7 21.7
03:10 1021 30.15 850 25.1 -4.5 23.9 91 -5.8 21.6
03:15 1021 30.15 850 25.1 -4.5 23.9 90 -5.9 21.4
03:20 1021 30.15 850 25.1 -4.6 23.7 90 -6.1 21
03:25 1021 30.15 850 25.1 -4.8 23.3 90 -6.2 20.8
03:30 1021 30.15 850 25.1 -5.1 22.9 91 -6.4 20.6
03:35 1021 30.15 850 25.1 -5 22.9 91 -6.3 20.6
03:40 1021 30.15 850 25.1 -4.8 23.3 90 -6.2 20.8
03:45 1021 30.15 850 25.1 -4.8 23.5 89 -6.3 20.7
03:50 1021 30.15 850 25.1 -4.8 23.4 90 -6.3 20.7
03:55 1021 30.15 850 25.1 -4.8 23.4 89 -6.3 20.7
04:00 1021 30.15 850 25.1 -4.7 23.6 89 -6.2 20.8
04:05 1021 30.15 850 25.1 -4.7 23.5 89 -6.4 20.6
04:10 1021 30.15 850 25.1 -4.8 23.4 88 -6.5 20.2
04:15 1021 30.15 850 25.1 -4.7 23.5 88 -6.5 20.3
04:20 1021 30.15 850 25.1 -4.7 23.5 87 -6.6 20.1
04:25 1021 30.15 850 25.1 -4.7 23.6 86 -6.7 19.9
04:30 1021 30.15 850 25.1 -4.7 23.6 86 -6.7 20
04:35 1021 30.15 850 25.1 -4.7 23.6 86 -6.6 20.1
04:40 1021 30.15 850 25.1 -4.8 23.3 87 -6.6 20.1
04:45 1021 30.15 850 25.1 -5 23 88 -6.7 20
04:50 1021 30.15 850 25.1 -5 23 88 -6.7 20
04:55 1021 30.15 850 25.1 -5.1 22.9 88 -6.8 19.8
05:00 1021 30.15 850 25.1 -5.2 22.7 88 -6.9 19.6
05:05 1021 30.15 850 25.1 -5.2 22.6 88 -6.8 19.7
05:10 1021 30.15 850 25.1 -5.2 22.7 87 -7 19.3
05:15 1021 30.15 850 25.1 -5.1 22.9 86 -7.1 19.2
05:20 1021 30.15 850 25.1 -5.1 22.9 86 -7.1 19.3
05:25 1021 30.15 850 25.1 -5.1 22.9 85 -7.2 19.1
05:30 1021 30.15 850 25.1 -5.1 22.7 86 -7.2 19.1
05:35 1021 30.15 850 25.1 -5.2 22.6 87 -7 19.3
05:40 1021 30.15 850 25.1 -5.2 22.6 86 -7.2 19
05:45 1021 30.15 850 25.1 -5.2 22.6 86 -7.2 19
05:50 1021 30.15 850 25.1 -5.2 22.6 87 -7.1 19.2
05:55 1021 30.15 850 25.1 -5.2 22.6 87 -7.1 19.3
06:00 1021 30.15 850 25.1 -5.2 22.6 87 -7 19.3
06:05 1021 30.15 850 25.1 -5.3 22.5 88 -7 19.5
06:10 1021 30.15 850 25.1 -5.3 22.5 87 -7.1 19.3
06:15 1021 30.15 850 25.1 -5.3 22.4 88 -7 19.5
06:20 1021 30.15 850 25.1 -5.3 22.4 88 -7 19.5
06:25 1021 30.15 850 25.1 -5.2 22.6 88 -6.9 19.6
06:30 1021 30.15 850 25.1 -5.2 22.6 89 -6.8 19.8
06:35 1021 30.15 850 25.1 -5.2 22.7 89 -6.7 19.9
06:40 1021 30.15 850 25.1 -5.1 22.8 88 -6.8 19.8
06:45 1021 30.15 850 25.1 -5 23 87 -6.8 19.8
06:50 1021 30.15 850 25.1 -4.9 23.1 86 -7 19.4
06:55 1021 30.15 850 25.1 -4.9 23.2 84 -7.2 19.1
07:00 1021 30.15 850 25.1 -4.8 23.4 84 -7.1 19.2
07:05 1021 30.15 850 25.1 -4.7 23.5 84 -7.1 19.2
07:10 1021 30.15 850 25.1 -4.8 23.4 83 -7.2 19
07:15 1021 30.15 850 25.1 -4.8 23.3 83 -7.2 19
07:20 1021 30.15 850 25.1 -4.9 23.2 84 -7.2 19
07:25 1021 30.15 850 25.1 -5 23 84 -7.4 18.7
07:30 1021 30.15 850 25.1 -5.1 22.8 85 -7.3 18.8
07:35 1021 30.15 850 25.1 -5.2 22.7 85 -7.3 18.9
07:40 1021 30.15 850 25.1 -5.3 22.5 86 -7.3 18.9
07:45 1021 30.15 850 25.1 -5.4 22.3 86 -7.3 18.8
07:50 1021 30.15 850 25.1 -5.5 22.2 87 -7.4 18.7
07:55 1021 30.15 850 25.1 -5.5 22.2 87 -7.3 18.8
08:00 1021 30.15 850 25.1 -5.4 22.2 86 -7.4 18.7
08:05 1021 30.15 850 25.1 -5.4 22.4 85 -7.5 18.5
08:10 1021 30.15 850 25.1 -5.3 22.5 85 -7.5 18.6
08:15 1021 30.15 850 25.1 -5.5 22.1 86 -7.4 18.6
08:20 1021 30.15 850 25.1 -5.6 21.9 86 -7.5 18.5
08:25 1021 30.15 850 25.1 -5.6 21.9 85 -7.7 18.1
08:30 1021 30.15 850 25.1 -5.6 21.9 86 -7.6 18.3
08:35 1021 30.15 850 25.1 -5.4 22.2 84 -7.7 18.2
08:40 1021 30.15 850 25.1 -5.5 22.1 86 -7.5 18.5
08:45 1021 30.15 850 25.1 -5.5 22.1 86 -7.5 18.4
08:50 1021 30.15 850 25.1 -5.6 22 85 -7.7 18.2
08:55 1021 30.15 850 25.1 -5.3 22.5 84 -7.5 18.4
09:00 1021 30.15 850 25.1 -5.2 22.6 84 -7.6 18.4
09:05 1021 30.15 850 25.1 -5.3 22.5 83 -7.7 18.2
09:10 1021 30.15 850 25.1 -5.4 22.3 83 -7.8 18
09:15 1021 30.15 850 25.1 -5.2 22.7 82 -7.8 18
09:20 1021 30.15 850 25.1 -5.2 22.7 83 -7.7 18.1
09:25 1021 30.15 850 25.1 -5.2 22.7 82 -7.7 18.1
09:30 1021 30.15 850 25.1 -4.8 23.4 80 -7.7 18.1
09:35 1021 30.15 850 25.1 -5 23 81 -7.7 18.2
09:40 1021 30.15 850 25.1 -4.9 23.3 81 -7.6 18.2
09:45 1021 30.15 850 25.1 -4.5 23.9 79 -7.6 18.3
09:50 1021 30.15 850 25.1 -4.2 24.5 79 -7.3 18.9
09:55 1021 30.15 850 25.1 -3.8 25.2 75 -7.5 18.5
10:00 1021 30.15 850 25.1 -3 26.7 71 -7.5 18.6
10:05 1021 30.15 850 25.1 -2.6 27.4 72 -6.9 19.5
10:10 1021 30.15 850 25.1 -2.7 27.1 69 -7.7 18.1
10:15 1021 30.15 850 25.1 -1.5 29.2 65 -7.2 19
10:20 1021 30.15 850 25.1 -1.2 29.8 66 -6.8 19.7
10:25 1021 30.15 850 25.1 -1.9 28.5 68 -7.1 19.1
10:30 1021 30.15 850 25.1 -1.3 29.6 64 -7.2 19
10:35 1021 30.15 850 25.1 -0.6 30.9 63 -6.8 19.7
10:40 1021 30.15 850 25.1 -1.1 30.1 64 -7.1 19.2
10:45 1021 30.15 850 25.1 -1.6 29.2 67 -6.8 19.7
10:50 1021 30.15 850 25.1 -2.2 28 70 -6.9 19.5
10:55 1021 30.15 850 25.1 -2.8 27 72 -7.2 19.1
11:00 1021 30.15 850 25.1 -2.6 27.4 72 -7 19.4
11:05 1021 30.15 850 25.1 -2.7 27.2 71 -7.2 19
11:10 1021 30.15 850 25.1 -1.6 29.1 66 -7.2 19
11:15 1021 30.15 850 25.1 -1.2 29.8 65 -6.9 19.6
11:20 1021 30.15 850 25.1 -1.7 28.9 66 -7.3 18.9
11:25 1021 30.15 850 25.1 -1.3 29.6 62 -7.7 18.2
11:30 1021 30.15 850 25.1 -0.6 30.9 61 -7.2 19
11:35 1021 30.15 850 25.1 -0.3 31.4 58 -7.6 18.2
11:40 1021 30.15 850 25.1 -1.4 29.5 65 -7.1 19.2
11:45 1021 30.15 850 25.1 -1.2 29.8 64 -7.2 19.1
11:50 1021 30.15 850 25.1 -0.8 30.5 61 -7.3 18.8
11:55 1021 30.15 850 25.1 -1.2 29.8 63 -7.3 18.8
12:00 1021 30.15 850 25.1 -1.5 29.2 66 -7.1 19.2
12:05 1021 30.15 850 25.1 -2.3 27.8 69 -7.3 18.8
12:10 1021 30.15 850 25.1 -2.6 27.4 70 -7.4 18.7
12:15 1020 30.12 850 25.1 -3.3 26.1 72 -7.6 18.3
12:20 1020 30.12 850 25.1 -3.3 26.1 69 -8.2 17.3
12:25 1020 30.12 850 25.1 -2.4 27.6 68 -7.5 18.5
12:30 1020 30.12 850 25.1 -2.3 27.8 71 -6.9 19.5
12:35 1020 30.12 850 25.1 -1.8 28.8 64 -7.8 18
12:40 1020 30.12 850 25.1 -2.4 27.6 70 -7.1 19.2
12:45 1020 30.12 850 25.1 -2.5 27.6 69 -7.4 18.7
12:50 1020 30.12 850 25.1 -1.4 29.4 64 -7.3 18.8
12:55 1020 30.12 849 25.07 -1.3 29.6 65 -7.1 19.2
13:00 1020 30.12 849 25.07 -1.5 29.4 66 -6.9 19.5
13:05 1020 30.12 849 25.07 -2.1 28.3 67 -7.4 18.6
13:10 1020 30.12 849 25.07 -2.1 28.2 65 -7.7 18.1
13:15 1020 30.12 849 25.07 -1.8 28.7 66 -7.4 18.6
13:20 1020 30.12 849 25.07 -1.7 28.9 65 -7.5 18.5
13:25 1020 30.12 849 25.07 -1.6 29.2 62 -7.9 17.7
13:30 1020 30.12 849 25.07 -1.7 29 65 -7.3 18.8
13:35 1020 30.12 849 25.07 -1.4 29.4 64 -7.5 18.6
13:40 1020 30.12 849 25.07 -1.2 29.9 62 -7.5 18.5
13:45 1020 30.12 849 25.07 -0.8 30.6 57 -8.2 17.2
13:50 1020 30.12 849 25.07 -0.2 31.6 56 -8 17.6
13:55 1020 30.12 849 25.07 -0.2 31.6 57 -7.8 17.9
14:00 1020 30.12 849 25.07 -0.2 31.6 55 -8.1 17.4
14:05 1020 30.12 849 25.07 -0.5 31.2 58 -7.8 18
14:10 1020 30.12 849 25.07 -0.4 31.2 59 -7.5 18.5
14:15 1020 30.12 849 25.07 -0.5 31 59 -7.6 18.4
14:20 1020 30.12 849 25.07 -0.8 30.6 60 -7.5 18.5
14:25 1020 30.12 849 25.07 -0.9 30.3 62 -7.2 19
14:30 1020 30.12 849 25.07 -1 30.2 61 -7.6 18.4
14:35 1020 30.12 849 25.07 -0.7 30.7 58 -8 17.6
14:40 1020 30.12 849 25.07 -0.9 30.4 60 -7.6 18.2
14:45 1020 30.12 849 25.07 -0.7 30.8 58 -8 17.7
14:50 1020 30.12 849 25.07 -0.8 30.6 57 -8.2 17.2
14:55 1020 30.12 849 25.07 -0.9 30.3 57 -8.3 17
15:00 1020 30.12 849 25.07 -0.9 30.4 56 -8.5 16.6
15:05 1020 30.12 849 25.07 -0.9 30.3 58 -8.2 17.3
15:10 1020 30.12 849 25.07 -1.1 30 59 -8.2 17.2
15:15 1020 30.12 849 25.07 -0.7 30.7 59 -7.7 18.1
15:20 1019 30.09 849 25.07 -0.6 30.9 57 -8 17.5
15:25 1019 30.09 849 25.07 -0.5 31.2 55 -8.5 16.7
15:30 1019 30.09 849 25.07 -0.8 30.5 57 -8.4 16.9
15:35 1019 30.09 849 25.07 -1 30.2 57 -8.5 16.7
15:40 1019 30.09 849 25.07 -0.9 30.4 54 -9 15.8
15:45 1019 30.09 849 25.07 -1 30.2 55 -9 15.8
15:50 1019 30.09 849 25.07 -1.1 30.1 55 -9 15.8
15:55 1019 30.09 849 25.07 -1.3 29.7 55 -9.2 15.4
16:00 1019 30.09 849 25.07 -1.6 29.2 56 -9.3 15.3
16:05 1019 30.09 849 25.07 -2 28.5 57 -9.3 15.2
16:10 1019 30.09 849 25.07 -1.8 28.7 58 -9 15.9
16:15 1019 30.09 849 25.07 -1.5 29.2 56 -9.2 15.4
16:20 1019 30.09 849 25.07 -1.7 29 59 -8.6 16.5
16:25 1019 30.09 849 25.07 -1.8 28.7 60 -8.6 16.4
16:30 1019 30.09 849 25.07 -1.8 28.8 58 -9 15.9
16:35 1019 30.09 849 25.07 -1.8 28.8 60 -8.6 16.5
16:40 1019 30.09 849 25.07 -1.9 28.6 62 -8.2 17.3
16:45 1019 30.09 849 25.07 -2.9 26.7 66 -8.5 16.7
16:50 1019 30.09 849 25.07 -3.3 26.1 68 -8.4 16.9
16:55 1019 30.09 849 25.07 -3.3 26 68 -8.4 16.8
17:00 1019 30.09 848 25.04 -3.2 26.2 71 -7.7 18.1
17:05 1019 30.09 848 25.04 -3.5 25.8 72 -7.7 18.1
17:10 1019 30.09 848 25.04 -3.8 25.2 71 -8.2 17.2
17:15 1019 30.09 848 25.04 -3.9 25 70 -8.5 16.7
17:20 1019 30.09 848 25.04 -4 24.8 72 -8.3 17.1
17:25 1019 30.09 848 25.04 -3.8 25.2 71 -8.3 17
17:30 1019 30.09 848 25.04 -3.8 25.1 71 -8.3 17.1
17:35 1019 30.09 848 25.04 -3.8 25.1 71 -8.4 16.8
17:40 1019 30.09 848 25.04 -4 24.8 71 -8.5 16.7
17:45 1019 30.09 848 25.04 -4.2 24.4 72 -8.5 16.7
17:50 1019 30.09 848 25.04 -4.3 24.3 72 -8.6 16.5
17:55 1019 30.09 848 25.04 -4.2 24.4 72 -8.6 16.5
18:00 1019 30.09 848 25.04 -4.3 24.2 73 -8.5 16.7
18:05 1019 30.09 848 25.04 -4.4 24.1 73 -8.6 16.6
18:10 1019 30.09 848 25.04 -4.3 24.2 73 -8.5 16.7
18:15 1019 30.09 848 25.04 -4.5 24 73 -8.6 16.4
18:20 1019 30.09 848 25.04 -4.6 23.7 73 -8.8 16.1
18:25 1019 30.09 848 25.04 -4.7 23.5 72 -9 15.7
18:30 1019 30.09 848 25.04 -4.6 23.7 71 -9 15.8
18:35 1019 30.09 848 25.04 -4.5 23.9 71 -9 15.8
18:40 1019 30.09 848 25.04 -4.5 24 71 -8.9 15.9
18:45 1019 30.09 848 25.04 -4.5 23.9 72 -8.8 16.1
18:50 1019 30.09 848 25.04 -4.6 23.8 71 -9 15.8
18:55 1019 30.09 848 25.04 -4.5 24 71 -9 15.8
19:00 1019 30.09 848 25.04 -4 24.7 69 -8.9 16
19:05 1019 30.09 848 25.04 -3.7 25.3 70 -8.5 16.7
19:10 1019 30.09 848 25.04 -3.7 25.4 70 -8.4 16.9
19:15 1019 30.09 848 25.04 -3.7 25.4 69 -8.5 16.7
19:20 1019 30.09 848 25.04 -3.8 25.2 71 -8.3 17.1
19:25 1019 30.09 848 25.04 -4.2 24.5 73 -8.3 17.1
19:30 1019 30.09 848 25.04 -4.4 24.1 75 -8.2 17.2
19:35 1019 30.09 848 25.04 -4.3 24.3 72 -8.6 16.6
19:40 1019 30.09 848 25.04 -4.1 24.6 72 -8.5 16.7
19:45 1019 30.09 848 25.04 -4.2 24.4 73 -8.3 17
19:50 1019 30.09 848 25.04 -4.2 24.4 73 -8.4 16.9
19:55 1019 30.09 848 25.04 -4.1 24.5 73 -8.3 17
20:00 1019 30.09 848 25.04 -4.1 24.7 73 -8.3 17.1
20:05 1019 30.09 848 25.04 -4 24.8 71 -8.5 16.7
20:10 1019 30.09 848 25.04 -4.1 24.6 71 -8.6 16.5
20:15 1019 30.09 848 25.04 -4.1 24.6 73 -8.2 17.2
20:20 1019 30.09 848 25.04 -4 24.7 73 -8.2 17.3
20:25 1019 30.09 848 25.04 -4.2 24.5 74 -8.1 17.4
20:30 1019 30.09 848 25.04 -4.5 23.9 74 -8.4 16.9
20:35 1019 30.09 848 25.04 -4.6 23.7 74 -8.6 16.5
20:40 1018 30.06 848 25.04 -4.7 23.5 75 -8.4 16.8
20:45 1018 30.06 848 25.04 -5.1 22.9 76 -8.6 16.5
20:50 1018 30.06 848 25.04 -5.1 22.9 76 -8.7 16.4
20:55 1018 30.06 848 25.04 -5 23 75 -8.8 16.2
21:00 1018 30.06 848 25.04 -4.8 23.4 74 -8.7 16.4
21:05 1018 30.06 847 25.01 -4.8 23.4 75 -8.6 16.5
21:10 1018 30.06 847 25.01 -4.8 23.3 74 -8.7 16.4
21:15 1018 30.06 848 25.04 -4.6 23.7 74 -8.6 16.5
21:20 1018 30.06 848 25.04 -4.5 23.9 74 -8.4 16.8
21:25 1018 30.06 848 25.04 -4.5 24 75 -8.2 17.3
21:30 1018 30.06 848 25.04 -4.7 23.5 76 -8.3 17
21:35 1018 30.06 848 25.04 -5 23 77 -8.4 16.8
21:40 1018 30.06 848 25.04 -5.2 22.7 79 -8.4 17
21:45 1018 30.06 848 25.04 -5.1 22.8 78 -8.4 16.8
21:50 1018 30.06 848 25.04 -5.2 22.7 78 -8.5 16.7
21:55 1018 30.06 847 25.01 -5.4 22.4 78 -8.6 16.6
22:00 1018 30.06 847 25.01 -5.5 22.1 78 -8.7 16.3
22:05 1018 30.06 847 25.01 -5.6 21.9 79 -8.8 16.2
22:10 1018 30.06 847 25.01 -5.6 21.9 78 -8.9 16
22:15 1018 30.06 847 25.01 -5.7 21.7 78 -9.1 15.7
22:20 1018 30.06 847 25.01 -6 21.2 78 -9.3 15.3
22:25 1018 30.06 847 25.01 -6.3 20.6 79 -9.4 15
22:30 1018 30.06 847 25.01 -6.3 20.7 79 -9.3 15.2
22:35 1018 30.06 847 25.01 -6.2 20.8 79 -9.3 15.3
22:40 1018 30.06 847 25.01 -6 21.1 78 -9.2 15.4
22:45 1018 30.06 847 25.01 -5.9 21.4 78 -9.1 15.7
22:50 1018 30.06 847 25.01 -5.8 21.5 79 -9 15.9
22:55 1018 30.06 847 25.01 -5.8 21.5 79 -8.9 15.9
23:00 1018 30.06 847 25.01 -5.8 21.5 79 -8.9 16
23:05 1018 30.06 847 25.01 -5.8 21.6 79 -8.9 16.1
23:10 1018 30.06 847 25.01 -5.7 21.7 80 -8.7 16.3
23:15 1018 30.06 847 25.01 -5.7 21.7 79 -8.9 16
23:20 1018 30.06 847 25.01 -5.8 21.6 79 -8.8 16.2
23:25 1018 30.06 847 25.01 -6 21.2 80 -8.9 16
23:30 1018 30.06 847 25.01 -6 21.3 80 -9 15.9
23:35 1018 30.06 847 25.01 -5.9 21.3 80 -8.9 16
23:40 1018 30.06 847 25.01 -6 21.2 80 -8.9 16
23:45 1018 30.06 847 25.01 -5.9 21.3 80 -8.8 16.2
23:50 1018 30.06 847 25.01 -5.8 21.5 80 -8.8 16.1
23:55 1018 30.06 847 25.01 -5.8 21.5 79 -8.8 16.1
24:00 1018 30.06 847 25.01 -5.8 21.6 80 -8.7 16.3